sensor_id;sensor_type;location;lat;lon;timestamp;P1;durP1;ratioP1;P2;durP2;ratioP2
65871;SDS011;52653;50.080;21.992;2023-12-04T00:02:06;23.60;;;15.30;;
65871;SDS011;52653;50.080;21.992;2023-12-04T00:04:50;24.90;;;15.70;;
65871;SDS011;52653;50.080;21.992;2023-12-04T00:07:43;24.00;;;14.80;;
65871;SDS011;52653;50.080;21.992;2023-12-04T00:10:36;24.20;;;15.20;;
65871;SDS011;52653;50.080;21.992;2023-12-04T00:13:29;25.20;;;15.60;;
65871;SDS011;52653;50.080;21.992;2023-12-04T00:16:21;25.20;;;15.40;;
65871;SDS011;52653;50.080;21.992;2023-12-04T00:19:11;29.30;;;16.30;;
65871;SDS011;52653;50.080;21.992;2023-12-04T00:21:57;32.90;;;19.70;;
65871;SDS011;52653;50.080;21.992;2023-12-04T00:24:55;31.90;;;19.10;;
65871;SDS011;52653;50.080;21.992;2023-12-04T00:27:51;30.10;;;17.80;;
65871;SDS011;52653;50.080;21.992;2023-12-04T00:30:38;31.60;;;18.10;;
65871;SDS011;52653;50.080;21.992;2023-12-04T00:33:31;30.80;;;18.70;;
65871;SDS011;52653;50.080;21.992;2023-12-04T00:36:24;25.00;;;16.10;;
65871;SDS011;52653;50.080;21.992;2023-12-04T00:39:17;27.40;;;16.20;;
65871;SDS011;52653;50.080;21.992;2023-12-04T00:42:10;24.80;;;15.60;;
65871;SDS011;52653;50.080;21.992;2023-12-04T00:44:56;22.60;;;15.80;;
65871;SDS011;52653;50.080;21.992;2023-12-04T00:47:49;24.20;;;15.10;;
65871;SDS011;52653;50.080;21.992;2023-12-04T00:54:45;25.30;;;17.30;;
65871;SDS011;52653;50.080;21.992;2023-12-04T00:57:58;25.10;;;17.80;;
65871;SDS011;52653;50.080;21.992;2023-12-04T01:00:52;23.90;;;16.10;;
65871;SDS011;52653;50.080;21.992;2023-12-04T01:03:48;24.30;;;15.00;;
65871;SDS011;52653;50.080;21.992;2023-12-04T01:06:41;23.30;;;15.30;;
65871;SDS011;52653;50.080;21.992;2023-12-04T01:09:27;21.90;;;15.30;;
65871;SDS011;52653;50.080;21.992;2023-12-04T01:12:20;22.80;;;14.70;;
65871;SDS011;52653;50.080;21.992;2023-12-04T01:15:15;23.20;;;14.30;;
65871;SDS011;52653;50.080;21.992;2023-12-04T01:18:01;19.80;;;12.90;;
65871;SDS011;52653;50.080;21.992;2023-12-04T01:20:54;18.50;;;12.60;;
65871;SDS011;52653;50.080;21.992;2023-12-04T01:23:47;20.70;;;13.70;;
65871;SDS011;52653;50.080;21.992;2023-12-04T01:26:40;20.70;;;13.00;;
65871;SDS011;52653;50.080;21.992;2023-12-04T01:29:25;21.30;;;13.70;;
65871;SDS011;52653;50.080;21.992;2023-12-04T01:32:19;21.20;;;13.90;;
65871;SDS011;52653;50.080;21.992;2023-12-04T01:35:16;21.70;;;14.70;;
65871;SDS011;52653;50.080;21.992;2023-12-04T01:38:11;21.80;;;14.20;;
65871;SDS011;52653;50.080;21.992;2023-12-04T01:41:05;20.10;;;14.30;;
65871;SDS011;52653;50.080;21.992;2023-12-04T01:43:58;21.40;;;14.10;;
65871;SDS011;52653;50.080;21.992;2023-12-04T01:46:45;23.40;;;15.30;;
65871;SDS011;52653;50.080;21.992;2023-12-04T01:49:38;22.40;;;14.20;;
65871;SDS011;52653;50.080;21.992;2023-12-04T01:52:32;21.80;;;13.20;;
65871;SDS011;52653;50.080;21.992;2023-12-04T01:55:26;19.80;;;12.70;;
65871;SDS011;52653;50.080;21.992;2023-12-04T01:58:20;19.30;;;12.30;;
65871;SDS011;52653;50.080;21.992;2023-12-04T02:01:12;18.40;;;12.00;;
65871;SDS011;52653;50.080;21.992;2023-12-04T02:04:05;19.20;;;12.10;;
65871;SDS011;52653;50.080;21.992;2023-12-04T02:06:58;19.10;;;12.20;;
65871;SDS011;52653;50.080;21.992;2023-12-04T02:09:52;18.00;;;10.80;;
65871;SDS011;52653;50.080;21.992;2023-12-04T02:12:44;17.50;;;10.40;;
65871;SDS011;52653;50.080;21.992;2023-12-04T02:15:48;19.90;;;11.50;;
65871;SDS011;52653;50.080;21.992;2023-12-04T02:18:44;18.30;;;11.50;;
65871;SDS011;52653;50.080;21.992;2023-12-04T02:21:37;19.50;;;11.60;;
65871;SDS011;52653;50.080;21.992;2023-12-04T02:24:31;17.60;;;11.10;;
65871;SDS011;52653;50.080;21.992;2023-12-04T02:27:14;20.10;;;11.70;;
65871;SDS011;52653;50.080;21.992;2023-12-04T02:33:06;19.90;;;11.60;;
65871;SDS011;52653;50.080;21.992;2023-12-04T02:35:54;18.50;;;10.30;;
65871;SDS011;52653;50.080;21.992;2023-12-04T02:38:48;18.30;;;11.70;;
65871;SDS011;52653;50.080;21.992;2023-12-04T02:41:41;16.60;;;10.70;;
65871;SDS011;52653;50.080;21.992;2023-12-04T02:44:34;17.60;;;10.50;;
65871;SDS011;52653;50.080;21.992;2023-12-04T02:47:27;16.50;;;10.20;;
65871;SDS011;52653;50.080;21.992;2023-12-04T02:50:19;14.70;;;9.20;;
65871;SDS011;52653;50.080;21.992;2023-12-04T02:53:12;17.70;;;10.20;;
65871;SDS011;52653;50.080;21.992;2023-12-04T02:56:06;19.00;;;10.80;;
65871;SDS011;52653;50.080;21.992;2023-12-04T02:59:00;17.00;;;10.90;;
65871;SDS011;52653;50.080;21.992;2023-12-04T03:01:53;18.90;;;12.00;;
65871;SDS011;52653;50.080;21.992;2023-12-04T03:04:46;19.30;;;11.60;;
65871;SDS011;52653;50.080;21.992;2023-12-04T03:07:18;19.20;;;11.80;;
65871;SDS011;52653;50.080;21.992;2023-12-04T03:10:14;19.50;;;11.60;;
65871;SDS011;52653;50.080;21.992;2023-12-04T03:13:06;19.80;;;12.40;;
65871;SDS011;52653;50.080;21.992;2023-12-04T03:15:59;18.30;;;11.80;;
65871;SDS011;52653;50.080;21.992;2023-12-04T03:18:52;16.10;;;10.60;;
65871;SDS011;52653;50.080;21.992;2023-12-04T03:21:45;19.20;;;10.70;;
65871;SDS011;52653;50.080;21.992;2023-12-04T03:24:38;16.70;;;11.40;;
65871;SDS011;52653;50.080;21.992;2023-12-04T03:27:33;18.70;;;11.00;;
65871;SDS011;52653;50.080;21.992;2023-12-04T03:30:26;17.60;;;11.30;;
65871;SDS011;52653;50.080;21.992;2023-12-04T03:33:09;15.40;;;10.90;;
65871;SDS011;52653;50.080;21.992;2023-12-04T03:36:03;17.10;;;11.20;;
65871;SDS011;52653;50.080;21.992;2023-12-04T03:38:57;17.20;;;10.80;;
65871;SDS011;52653;50.080;21.992;2023-12-04T03:41:50;17.20;;;11.40;;
65871;SDS011;52653;50.080;21.992;2023-12-04T03:44:36;15.60;;;10.40;;
65871;SDS011;52653;50.080;21.992;2023-12-04T03:47:31;20.10;;;12.20;;
65871;SDS011;52653;50.080;21.992;2023-12-04T03:50:24;17.20;;;11.70;;
65871;SDS011;52653;50.080;21.992;2023-12-04T03:53:17;20.10;;;12.50;;
65871;SDS011;52653;50.080;21.992;2023-12-04T03:56:11;19.00;;;12.30;;
65871;SDS011;52653;50.080;21.992;2023-12-04T03:59:04;19.30;;;12.60;;
65871;SDS011;52653;50.080;21.992;2023-12-04T04:01:50;20.20;;;12.90;;
65871;SDS011;52653;50.080;21.992;2023-12-04T04:04:42;19.70;;;12.10;;
65871;SDS011;52653;50.080;21.992;2023-12-04T04:07:35;19.20;;;11.60;;
65871;SDS011;52653;50.080;21.992;2023-12-04T04:10:13;16.50;;;10.50;;
65871;SDS011;52653;50.080;21.992;2023-12-04T04:13:06;17.30;;;10.90;;
65871;SDS011;52653;50.080;21.992;2023-12-04T04:15:55;17.30;;;10.90;;
65871;SDS011;52653;50.080;21.992;2023-12-04T04:18:48;16.50;;;11.10;;
65871;SDS011;52653;50.080;21.992;2023-12-04T04:21:44;20.70;;;13.40;;
65871;SDS011;52653;50.080;21.992;2023-12-04T04:24:37;18.50;;;12.10;;
65871;SDS011;52653;50.080;21.992;2023-12-04T04:27:30;18.00;;;11.90;;
65871;SDS011;52653;50.080;21.992;2023-12-04T04:30:25;20.50;;;12.50;;
65871;SDS011;52653;50.080;21.992;2023-12-04T04:33:14;20.20;;;12.40;;
65871;SDS011;52653;50.080;21.992;2023-12-04T04:36:10;18.40;;;11.20;;
65871;SDS011;52653;50.080;21.992;2023-12-04T04:38:53;17.10;;;10.60;;
65871;SDS011;52653;50.080;21.992;2023-12-04T04:41:47;18.90;;;11.10;;
65871;SDS011;52653;50.080;21.992;2023-12-04T04:44:34;17.60;;;11.60;;
65871;SDS011;52653;50.080;21.992;2023-12-04T04:47:27;16.70;;;11.30;;
65871;SDS011;52653;50.080;21.992;2023-12-04T04:50:18;18.00;;;12.40;;
65871;SDS011;52653;50.080;21.992;2023-12-04T04:53:11;18.10;;;12.20;;
65871;SDS011;52653;50.080;21.992;2023-12-04T04:56:07;20.90;;;12.70;;
65871;SDS011;52653;50.080;21.992;2023-12-04T04:59:04;20.60;;;13.00;;
65871;SDS011;52653;50.080;21.992;2023-12-04T05:01:56;19.50;;;12.60;;
65871;SDS011;52653;50.080;21.992;2023-12-04T05:04:49;20.10;;;12.90;;
65871;SDS011;52653;50.080;21.992;2023-12-04T05:07:42;23.00;;;13.70;;
65871;SDS011;52653;50.080;21.992;2023-12-04T05:10:29;22.50;;;13.20;;
65871;SDS011;52653;50.080;21.992;2023-12-04T05:13:22;22.40;;;13.60;;
65871;SDS011;52653;50.080;21.992;2023-12-04T05:16:15;22.30;;;13.90;;
65871;SDS011;52653;50.080;21.992;2023-12-04T05:19:08;19.60;;;11.80;;
65871;SDS011;52653;50.080;21.992;2023-12-04T05:22:00;19.10;;;12.50;;
65871;SDS011;52653;50.080;21.992;2023-12-04T05:24:54;19.90;;;12.50;;
65871;SDS011;52653;50.080;21.992;2023-12-04T05:27:47;19.20;;;12.60;;
65871;SDS011;52653;50.080;21.992;2023-12-04T05:30:33;18.10;;;11.90;;
65871;SDS011;52653;50.080;21.992;2023-12-04T05:33:18;19.10;;;12.40;;
65871;SDS011;52653;50.080;21.992;2023-12-04T05:39:09;19.30;;;12.50;;
65871;SDS011;52653;50.080;21.992;2023-12-04T05:42:05;24.00;;;14.50;;
65871;SDS011;52653;50.080;21.992;2023-12-04T05:44:53;24.80;;;13.70;;
65871;SDS011;52653;50.080;21.992;2023-12-04T05:47:47;24.00;;;13.70;;
65871;SDS011;52653;50.080;21.992;2023-12-04T05:50:41;24.10;;;13.70;;
65871;SDS011;52653;50.080;21.992;2023-12-04T05:53:34;22.20;;;13.20;;
65871;SDS011;52653;50.080;21.992;2023-12-04T05:56:36;19.70;;;12.60;;
65871;SDS011;52653;50.080;21.992;2023-12-04T05:59:29;20.70;;;13.30;;
65871;SDS011;52653;50.080;21.992;2023-12-04T06:02:25;20.40;;;12.80;;
65871;SDS011;52653;50.080;21.992;2023-12-04T06:05:20;19.70;;;12.50;;
65871;SDS011;52653;50.080;21.992;2023-12-04T06:08:15;18.30;;;12.90;;
65871;SDS011;52653;50.080;21.992;2023-12-04T06:11:08;21.50;;;13.40;;
65871;SDS011;52653;50.080;21.992;2023-12-04T06:14:12;18.90;;;13.20;;
65871;SDS011;52653;50.080;21.992;2023-12-04T06:17:05;18.20;;;12.40;;
65871;SDS011;52653;50.080;21.992;2023-12-04T06:19:58;16.30;;;12.00;;
65871;SDS011;52653;50.080;21.992;2023-12-04T06:22:42;18.30;;;11.80;;
65871;SDS011;52653;50.080;21.992;2023-12-04T06:25:47;20.50;;;14.00;;
65871;SDS011;52653;50.080;21.992;2023-12-04T06:28:40;19.10;;;13.60;;
65871;SDS011;52653;50.080;21.992;2023-12-04T06:31:34;21.20;;;13.80;;
65871;SDS011;52653;50.080;21.992;2023-12-04T06:34:21;20.30;;;13.70;;
65871;SDS011;52653;50.080;21.992;2023-12-04T06:37:08;20.30;;;13.50;;
65871;SDS011;52653;50.080;21.992;2023-12-04T06:42:51;23.00;;;13.40;;
65871;SDS011;52653;50.080;21.992;2023-12-04T06:45:36;20.60;;;14.70;;
65871;SDS011;52653;50.080;21.992;2023-12-04T06:48:31;21.70;;;15.00;;
65871;SDS011;52653;50.080;21.992;2023-12-04T06:51:24;18.90;;;14.00;;
65871;SDS011;52653;50.080;21.992;2023-12-04T06:54:17;21.50;;;14.90;;
65871;SDS011;52653;50.080;21.992;2023-12-04T06:57:00;24.40;;;17.40;;
65871;SDS011;52653;50.080;21.992;2023-12-04T06:59:47;30.70;;;23.50;;
65871;SDS011;52653;50.080;21.992;2023-12-04T07:02:36;30.50;;;22.30;;
65871;SDS011;52653;50.080;21.992;2023-12-04T07:05:26;41.40;;;27.10;;
65871;SDS011;52653;50.080;21.992;2023-12-04T07:08:14;26.50;;;18.80;;
65871;SDS011;52653;50.080;21.992;2023-12-04T07:11:08;21.00;;;14.60;;
65871;SDS011;52653;50.080;21.992;2023-12-04T07:13:56;18.20;;;11.70;;
65871;SDS011;52653;50.080;21.992;2023-12-04T07:16:29;17.40;;;11.30;;
65871;SDS011;52653;50.080;21.992;2023-12-04T07:19:09;19.40;;;12.20;;
65871;SDS011;52653;50.080;21.992;2023-12-04T07:22:01;16.50;;;11.00;;
65871;SDS011;52653;50.080;21.992;2023-12-04T07:24:54;18.00;;;11.60;;
65871;SDS011;52653;50.080;21.992;2023-12-04T07:27:27;17.90;;;11.10;;
65871;SDS011;52653;50.080;21.992;2023-12-04T07:30:12;19.10;;;12.50;;
65871;SDS011;52653;50.080;21.992;2023-12-04T07:33:01;18.10;;;12.70;;
65871;SDS011;52653;50.080;21.992;2023-12-04T07:35:48;17.10;;;11.90;;
65871;SDS011;52653;50.080;21.992;2023-12-04T07:38:32;21.90;;;13.80;;
65871;SDS011;52653;50.080;21.992;2023-12-04T07:41:16;22.00;;;15.40;;
65871;SDS011;52653;50.080;21.992;2023-12-04T07:44:03;25.80;;;17.60;;
65871;SDS011;52653;50.080;21.992;2023-12-04T07:46:46;24.80;;;16.60;;
65871;SDS011;52653;50.080;21.992;2023-12-04T07:49:30;22.80;;;15.30;;
65871;SDS011;52653;50.080;21.992;2023-12-04T07:52:23;21.70;;;15.00;;
65871;SDS011;52653;50.080;21.992;2023-12-04T07:54:59;22.40;;;15.20;;
65871;SDS011;52653;50.080;21.992;2023-12-04T07:57:53;18.90;;;12.20;;
65871;SDS011;52653;50.080;21.992;2023-12-04T08:00:37;19.40;;;11.70;;
65871;SDS011;52653;50.080;21.992;2023-12-04T08:03:30;17.00;;;11.30;;
65871;SDS011;52653;50.080;21.992;2023-12-04T08:06:23;18.90;;;11.70;;
65871;SDS011;52653;50.080;21.992;2023-12-04T08:09:16;18.70;;;11.20;;
65871;SDS011;52653;50.080;21.992;2023-12-04T08:12:09;18.80;;;11.60;;
65871;SDS011;52653;50.080;21.992;2023-12-04T08:15:03;17.80;;;11.70;;
65871;SDS011;52653;50.080;21.992;2023-12-04T08:17:57;16.80;;;11.10;;
65871;SDS011;52653;50.080;21.992;2023-12-04T08:20:41;17.30;;;11.40;;
65871;SDS011;52653;50.080;21.992;2023-12-04T08:26:24;16.60;;;10.70;;
65871;SDS011;52653;50.080;21.992;2023-12-04T08:29:07;15.30;;;10.50;;
65871;SDS011;52653;50.080;21.992;2023-12-04T08:32:09;15.10;;;10.60;;
65871;SDS011;52653;50.080;21.992;2023-12-04T08:35:02;16.10;;;11.10;;
65871;SDS011;52653;50.080;21.992;2023-12-04T08:37:56;15.60;;;10.50;;
65871;SDS011;52653;50.080;21.992;2023-12-04T08:40:49;16.50;;;11.00;;
65871;SDS011;52653;50.080;21.992;2023-12-04T08:43:43;15.60;;;10.60;;
65871;SDS011;52653;50.080;21.992;2023-12-04T08:46:37;25.70;;;15.90;;
65871;SDS011;52653;50.080;21.992;2023-12-04T08:49:33;58.70;;;31.00;;
65871;SDS011;52653;50.080;21.992;2023-12-04T08:52:30;36.60;;;21.80;;
65871;SDS011;52653;50.080;21.992;2023-12-04T08:55:23;35.40;;;20.30;;
65871;SDS011;52653;50.080;21.992;2023-12-04T08:58:19;32.40;;;20.70;;
65871;SDS011;52653;50.080;21.992;2023-12-04T09:01:11;33.00;;;21.60;;
65871;SDS011;52653;50.080;21.992;2023-12-04T09:03:54;29.70;;;20.60;;
65871;SDS011;52653;50.080;21.992;2023-12-04T09:06:48;29.50;;;18.10;;
65871;SDS011;52653;50.080;21.992;2023-12-04T09:09:46;29.10;;;19.60;;
65871;SDS011;52653;50.080;21.992;2023-12-04T09:12:40;27.60;;;18.40;;
65871;SDS011;52653;50.080;21.992;2023-12-04T09:15:33;22.70;;;15.00;;
65871;SDS011;52653;50.080;21.992;2023-12-04T09:18:18;14.80;;;9.60;;
65871;SDS011;52653;50.080;21.992;2023-12-04T09:21:06;26.80;;;15.20;;
65871;SDS011;52653;50.080;21.992;2023-12-04T09:24:01;23.80;;;13.90;;
65871;SDS011;52653;50.080;21.992;2023-12-04T09:26:53;23.30;;;14.30;;
65871;SDS011;52653;50.080;21.992;2023-12-04T09:29:47;23.30;;;14.30;;
65871;SDS011;52653;50.080;21.992;2023-12-04T09:32:31;29.50;;;20.70;;
65871;SDS011;52653;50.080;21.992;2023-12-04T09:35:10;26.80;;;18.40;;
65871;SDS011;52653;50.080;21.992;2023-12-04T09:37:47;19.20;;;13.60;;
65871;SDS011;52653;50.080;21.992;2023-12-04T09:40:41;16.70;;;12.50;;
65871;SDS011;52653;50.080;21.992;2023-12-04T09:43:28;14.70;;;9.80;;
65871;SDS011;52653;50.080;21.992;2023-12-04T09:46:22;14.30;;;10.10;;
65871;SDS011;52653;50.080;21.992;2023-12-04T09:49:15;15.40;;;9.80;;
65871;SDS011;52653;50.080;21.992;2023-12-04T09:52:10;16.10;;;11.00;;
65871;SDS011;52653;50.080;21.992;2023-12-04T09:55:06;15.00;;;9.90;;
65871;SDS011;52653;50.080;21.992;2023-12-04T09:57:45;14.80;;;9.90;;
65871;SDS011;52653;50.080;21.992;2023-12-04T10:00:39;13.80;;;9.60;;
65871;SDS011;52653;50.080;21.992;2023-12-04T10:03:36;12.70;;;8.60;;
65871;SDS011;52653;50.080;21.992;2023-12-04T10:06:19;13.10;;;8.30;;
65871;SDS011;52653;50.080;21.992;2023-12-04T10:09:16;12.70;;;8.80;;
65871;SDS011;52653;50.080;21.992;2023-12-04T10:12:13;12.90;;;8.10;;
65871;SDS011;52653;50.080;21.992;2023-12-04T10:15:06;20.30;;;14.10;;
65871;SDS011;52653;50.080;21.992;2023-12-04T10:18:05;22.70;;;17.20;;
65871;SDS011;52653;50.080;21.992;2023-12-04T10:20:52;16.50;;;12.00;;
65871;SDS011;52653;50.080;21.992;2023-12-04T10:23:40;31.90;;;20.40;;
65871;SDS011;52653;50.080;21.992;2023-12-04T10:26:36;19.60;;;12.90;;
65871;SDS011;52653;50.080;21.992;2023-12-04T10:29:29;12.60;;;8.30;;
65871;SDS011;52653;50.080;21.992;2023-12-04T10:32:35;11.90;;;7.90;;
65871;SDS011;52653;50.080;21.992;2023-12-04T10:35:30;14.10;;;9.60;;
65871;SDS011;52653;50.080;21.992;2023-12-04T10:38:26;23.60;;;17.10;;
65871;SDS011;52653;50.080;21.992;2023-12-04T10:41:19;17.20;;;11.00;;
65871;SDS011;52653;50.080;21.992;2023-12-04T10:44:16;16.10;;;11.40;;
65871;SDS011;52653;50.080;21.992;2023-12-04T10:47:05;17.80;;;12.70;;
65871;SDS011;52653;50.080;21.992;2023-12-04T10:49:58;13.20;;;9.70;;
65871;SDS011;52653;50.080;21.992;2023-12-04T10:52:43;11.60;;;8.30;;
65871;SDS011;52653;50.080;21.992;2023-12-04T10:58:45;13.80;;;8.70;;
65871;SDS011;52653;50.080;21.992;2023-12-04T11:01:33;13.90;;;8.10;;
65871;SDS011;52653;50.080;21.992;2023-12-04T11:04:27;14.80;;;8.80;;
65871;SDS011;52653;50.080;21.992;2023-12-04T11:07:02;12.40;;;9.20;;
65871;SDS011;52653;50.080;21.992;2023-12-04T11:09:56;14.20;;;9.50;;
65871;SDS011;52653;50.080;21.992;2023-12-04T11:12:54;13.70;;;10.10;;
65871;SDS011;52653;50.080;21.992;2023-12-04T11:15:54;12.60;;;8.60;;
65871;SDS011;52653;50.080;21.992;2023-12-04T11:18:43;14.00;;;10.20;;
65871;SDS011;52653;50.080;21.992;2023-12-04T11:21:41;13.50;;;8.60;;
65871;SDS011;52653;50.080;21.992;2023-12-04T11:24:36;14.10;;;10.80;;
65871;SDS011;52653;50.080;21.992;2023-12-04T11:27:31;12.00;;;8.30;;
65871;SDS011;52653;50.080;21.992;2023-12-04T11:30:25;12.10;;;8.50;;
65871;SDS011;52653;50.080;21.992;2023-12-04T11:33:20;11.30;;;8.40;;
65871;SDS011;52653;50.080;21.992;2023-12-04T11:36:14;11.40;;;8.20;;
65871;SDS011;52653;50.080;21.992;2023-12-04T11:39:11;12.80;;;8.30;;
65871;SDS011;52653;50.080;21.992;2023-12-04T11:42:08;11.00;;;8.10;;
65871;SDS011;52653;50.080;21.992;2023-12-04T11:45:06;13.90;;;9.30;;
65871;SDS011;52653;50.080;21.992;2023-12-04T11:48:00;14.80;;;10.30;;
65871;SDS011;52653;50.080;21.992;2023-12-04T11:50:45;11.70;;;8.10;;
65871;SDS011;52653;50.080;21.992;2023-12-04T11:53:33;13.70;;;9.60;;
65871;SDS011;52653;50.080;21.992;2023-12-04T11:56:29;14.80;;;9.90;;
65871;SDS011;52653;50.080;21.992;2023-12-04T11:59:22;13.00;;;9.00;;
65871;SDS011;52653;50.080;21.992;2023-12-04T12:02:14;17.10;;;10.10;;
65871;SDS011;52653;50.080;21.992;2023-12-04T12:05:08;17.50;;;11.60;;
65871;SDS011;52653;50.080;21.992;2023-12-04T12:08:21;14.80;;;11.20;;
65871;SDS011;52653;50.080;21.992;2023-12-04T12:11:15;15.50;;;10.80;;
65871;SDS011;52653;50.080;21.992;2023-12-04T12:14:10;19.70;;;12.60;;
65871;SDS011;52653;50.080;21.992;2023-12-04T12:17:05;15.60;;;11.10;;
65871;SDS011;52653;50.080;21.992;2023-12-04T12:19:56;16.30;;;11.70;;
65871;SDS011;52653;50.080;21.992;2023-12-04T12:22:42;16.90;;;12.10;;
65871;SDS011;52653;50.080;21.992;2023-12-04T12:25:43;21.20;;;15.70;;
65871;SDS011;52653;50.080;21.992;2023-12-04T12:28:43;19.10;;;14.30;;
65871;SDS011;52653;50.080;21.992;2023-12-04T12:31:29;16.50;;;11.70;;
65871;SDS011;52653;50.080;21.992;2023-12-04T12:34:22;16.40;;;11.10;;
65871;SDS011;52653;50.080;21.992;2023-12-04T12:37:17;16.90;;;11.10;;
65871;SDS011;52653;50.080;21.992;2023-12-04T12:40:12;16.40;;;11.60;;
65871;SDS011;52653;50.080;21.992;2023-12-04T12:43:05;18.50;;;12.90;;
65871;SDS011;52653;50.080;21.992;2023-12-04T12:45:58;17.50;;;12.40;;
65871;SDS011;52653;50.080;21.992;2023-12-04T12:48:47;17.20;;;12.20;;
65871;SDS011;52653;50.080;21.992;2023-12-04T12:51:45;21.60;;;15.00;;
65871;SDS011;52653;50.080;21.992;2023-12-04T12:54:33;26.30;;;16.40;;
65871;SDS011;52653;50.080;21.992;2023-12-04T12:57:29;31.80;;;19.90;;
65871;SDS011;52653;50.080;21.992;2023-12-04T13:00:22;27.60;;;17.60;;
65871;SDS011;52653;50.080;21.992;2023-12-04T13:03:15;25.30;;;16.70;;
65871;SDS011;52653;50.080;21.992;2023-12-04T13:06:03;26.90;;;19.20;;
65871;SDS011;52653;50.080;21.992;2023-12-04T13:08:41;26.60;;;17.80;;
65871;SDS011;52653;50.080;21.992;2023-12-04T13:11:33;24.70;;;16.30;;
65871;SDS011;52653;50.080;21.992;2023-12-04T13:14:28;22.10;;;16.30;;
65871;SDS011;52653;50.080;21.992;2023-12-04T13:17:21;24.30;;;17.70;;
65871;SDS011;52653;50.080;21.992;2023-12-04T13:20:14;27.00;;;17.70;;
65871;SDS011;52653;50.080;21.992;2023-12-04T13:23:06;28.90;;;18.80;;
65871;SDS011;52653;50.080;21.992;2023-12-04T13:25:58;35.10;;;20.30;;
65871;SDS011;52653;50.080;21.992;2023-12-04T13:28:51;30.70;;;19.70;;
65871;SDS011;52653;50.080;21.992;2023-12-04T13:31:49;41.60;;;22.50;;
65871;SDS011;52653;50.080;21.992;2023-12-04T13:34:43;38.00;;;22.20;;
65871;SDS011;52653;50.080;21.992;2023-12-04T13:37:36;37.60;;;24.20;;
65871;SDS011;52653;50.080;21.992;2023-12-04T13:40:31;25.70;;;17.50;;
65871;SDS011;52653;50.080;21.992;2023-12-04T13:43:06;26.90;;;18.20;;
65871;SDS011;52653;50.080;21.992;2023-12-04T13:46:20;25.80;;;17.50;;
65871;SDS011;52653;50.080;21.992;2023-12-04T13:49:14;27.30;;;18.10;;
65871;SDS011;52653;50.080;21.992;2023-12-04T13:51:51;24.80;;;15.70;;
65871;SDS011;52653;50.080;21.992;2023-12-04T13:54:45;32.30;;;20.30;;
65871;SDS011;52653;50.080;21.992;2023-12-04T13:57:31;30.60;;;20.10;;
65871;SDS011;52653;50.080;21.992;2023-12-04T14:00:33;24.10;;;17.10;;
65871;SDS011;52653;50.080;21.992;2023-12-04T14:03:26;23.30;;;15.80;;
65871;SDS011;52653;50.080;21.992;2023-12-04T14:06:12;25.70;;;16.60;;
65871;SDS011;52653;50.080;21.992;2023-12-04T14:08:55;24.00;;;17.10;;
65871;SDS011;52653;50.080;21.992;2023-12-04T14:11:32;24.70;;;15.80;;
65871;SDS011;52653;50.080;21.992;2023-12-04T14:14:11;23.20;;;15.80;;
65871;SDS011;52653;50.080;21.992;2023-12-04T14:16:46;23.30;;;16.40;;
65871;SDS011;52653;50.080;21.992;2023-12-04T14:19:24;25.90;;;16.20;;
65871;SDS011;52653;50.080;21.992;2023-12-04T14:22:10;24.90;;;17.30;;
65871;SDS011;52653;50.080;21.992;2023-12-04T14:25:03;24.40;;;17.00;;
65871;SDS011;52653;50.080;21.992;2023-12-04T14:27:59;24.10;;;17.20;;
65871;SDS011;52653;50.080;21.992;2023-12-04T14:30:54;26.90;;;17.80;;
65871;SDS011;52653;50.080;21.992;2023-12-04T14:33:37;26.80;;;19.00;;
65871;SDS011;52653;50.080;21.992;2023-12-04T14:36:23;29.80;;;20.90;;
65871;SDS011;52653;50.080;21.992;2023-12-04T14:38:59;27.20;;;19.70;;
65871;SDS011;52653;50.080;21.992;2023-12-04T14:41:54;28.50;;;20.80;;
65871;SDS011;52653;50.080;21.992;2023-12-04T14:44:49;31.20;;;21.80;;
65871;SDS011;52653;50.080;21.992;2023-12-04T14:47:24;34.00;;;23.90;;
65871;SDS011;52653;50.080;21.992;2023-12-04T14:50:15;38.20;;;26.80;;
65871;SDS011;52653;50.080;21.992;2023-12-04T14:53:09;40.60;;;28.60;;
65871;SDS011;52653;50.080;21.992;2023-12-04T14:56:00;38.70;;;27.10;;
65871;SDS011;52653;50.080;21.992;2023-12-04T14:59:17;40.10;;;27.70;;
65871;SDS011;52653;50.080;21.992;2023-12-04T15:05:38;46.60;;;31.60;;
65871;SDS011;52653;50.080;21.992;2023-12-04T15:08:59;45.90;;;32.20;;
65871;SDS011;52653;50.080;21.992;2023-12-04T15:12:20;51.00;;;34.30;;
65871;SDS011;52653;50.080;21.992;2023-12-04T15:15:23;52.70;;;36.70;;
65871;SDS011;52653;50.080;21.992;2023-12-04T15:18:31;62.90;;;44.80;;
65871;SDS011;52653;50.080;21.992;2023-12-04T15:21:28;73.50;;;50.40;;
65871;SDS011;52653;50.080;21.992;2023-12-04T15:24:06;67.70;;;44.50;;
65871;SDS011;52653;50.080;21.992;2023-12-04T15:27:00;91.40;;;49.30;;
65871;SDS011;52653;50.080;21.992;2023-12-04T15:29:46;85.50;;;46.10;;
65871;SDS011;52653;50.080;21.992;2023-12-04T15:32:40;66.70;;;42.10;;
65871;SDS011;52653;50.080;21.992;2023-12-04T15:35:14;61.90;;;39.50;;
65871;SDS011;52653;50.080;21.992;2023-12-04T15:37:59;67.60;;;41.20;;
65871;SDS011;52653;50.080;21.992;2023-12-04T15:40:52;62.70;;;40.60;;
65871;SDS011;52653;50.080;21.992;2023-12-04T15:43:47;68.00;;;42.40;;
65871;SDS011;52653;50.080;21.992;2023-12-04T15:46:41;70.00;;;43.30;;
65871;SDS011;52653;50.080;21.992;2023-12-04T15:49:26;60.50;;;40.60;;
65871;SDS011;52653;50.080;21.992;2023-12-04T15:52:01;61.20;;;41.90;;
65871;SDS011;52653;50.080;21.992;2023-12-04T15:54:55;56.10;;;40.40;;
65871;SDS011;52653;50.080;21.992;2023-12-04T15:57:38;55.00;;;39.10;;
65871;SDS011;52653;50.080;21.992;2023-12-04T16:00:29;58.10;;;41.70;;
65871;SDS011;52653;50.080;21.992;2023-12-04T16:03:16;56.70;;;40.10;;
65871;SDS011;52653;50.080;21.992;2023-12-04T16:06:08;56.00;;;40.10;;
65871;SDS011;52653;50.080;21.992;2023-12-04T16:09:02;58.30;;;41.70;;
65871;SDS011;52653;50.080;21.992;2023-12-04T16:11:56;56.50;;;39.70;;
65871;SDS011;52653;50.080;21.992;2023-12-04T16:14:39;57.60;;;38.20;;
65871;SDS011;52653;50.080;21.992;2023-12-04T16:17:25;59.40;;;42.10;;
65871;SDS011;52653;50.080;21.992;2023-12-04T16:20:13;58.30;;;40.30;;
65871;SDS011;52653;50.080;21.992;2023-12-04T16:22:56;64.80;;;45.00;;
65871;SDS011;52653;50.080;21.992;2023-12-04T16:25:51;68.80;;;46.80;;
65871;SDS011;52653;50.080;21.992;2023-12-04T16:28:44;66.10;;;46.90;;
65871;SDS011;52653;50.080;21.992;2023-12-04T16:31:37;63.70;;;47.50;;
65871;SDS011;52653;50.080;21.992;2023-12-04T16:34:30;56.60;;;42.00;;
65871;SDS011;52653;50.080;21.992;2023-12-04T16:37:17;61.90;;;41.80;;
65871;SDS011;52653;50.080;21.992;2023-12-04T16:40:07;56.30;;;37.70;;
65871;SDS011;52653;50.080;21.992;2023-12-04T16:42:53;51.20;;;35.30;;
65871;SDS011;52653;50.080;21.992;2023-12-04T16:45:44;42.20;;;29.30;;
65871;SDS011;52653;50.080;21.992;2023-12-04T16:48:37;41.90;;;27.50;;
65871;SDS011;52653;50.080;21.992;2023-12-04T16:51:30;38.80;;;26.70;;
65871;SDS011;52653;50.080;21.992;2023-12-04T16:54:23;39.60;;;26.50;;